• Join FlightAware (Why Join?)
  • Login
  • US Flag 
07:34PM EDT


 

Airport Tracker/Info


-or-


 

Live Flight TrackerFlight Track Log ✈ PDT4147 ✈ 07-May-2013 ✈ KROA - KCLT

Flight Track Log - Related Links

Times and Time Zones

All times are in EDT time to prevent confusion due to time zone crossing. See the PDT4147 flight status page for this flight to view local times or setup timezone preferences in your user account.

Time Position Orientation Groundspeed Altitude Reporting Facility
EDT Latitude Longitude Course Direction KTS MPH feet Rate Location/Type
04:32PM 37.0694 -80.0213 195° South  Level FlightAware Approximate
04:33PM 37.0070 -80.0333 180° South  Level FlightAware Approximate
04:34PM 36.9434 -80.0315 176° South  Level FlightAware Approximate
04:35PM 36.8799 -80.0266 176° South  Level FlightAware Approximate
04:36PM 36.8163 -80.0218 176° South  Level FlightAware Approximate
04:37PM 36.7528 -80.0169 176° South  Level FlightAware Approximate
04:38PM 36.6892 -80.0150 177° South  Level FlightAware Approximate
04:39PM 36.6256 -80.0110 177° South  Level FlightAware Approximate
04:40PM 36.5621 -80.0070 177° South  Level FlightAware Approximate
04:41PM 36.4985 -80.0030 177° South  Level FlightAware Approximate
04:42PM 36.4350 -79.9981 174° South  Level FlightAware Approximate
04:43PM 36.3717 -79.9902 174° South  Level FlightAware Approximate
04:44PM 36.3083 -79.9828 177° South  Level FlightAware Approximate
04:45PM 36.2448 -79.9791 177° South  Level FlightAware Approximate
04:46PM 36.1812 -79.9753 177° South  Level FlightAware Approximate
04:47PM 36.1176 -79.9716 177° South  Level FlightAware Approximate
04:48PM 36.0541 -79.9679 177° South  Level FlightAware Approximate
04:49PM 36.0056 -80.0072 230° Southwest  Level FlightAware Approximate
04:50PM 35.9644 -80.0671 230° Southwest  Level FlightAware Approximate
04:51PM 35.9232 -80.1271 230° Southwest  Level FlightAware Approximate
04:52PM 35.8820 -80.1869 230° Southwest  Level FlightAware Approximate
04:53PM 35.8400 -80.2459 225° Southwest  Level FlightAware Approximate
04:53PM 35.9925 -80.4278 228° Southwest 210 242 6,100  Level Atlanta Center
04:54PM 35.7953 -80.3018 225° Southwest  Level FlightAware Approximate
04:54PM 35.8989 -80.4294 181° South 207 238 6,100  Level Atlanta Center
04:55PM 35.7517 -80.3589 227° Southwest  Level FlightAware Approximate
04:55PM 35.8383 -80.4294 180° South 210 242 6,000  Level Atlanta Center
04:56PM 35.7085 -80.4165 227° Southwest  Level FlightAware Approximate
04:56PM 35.7808 -80.4603 204° Southwest 233 268 6,000  Level Atlanta Center
04:57PM 35.6633 -80.4714 228° Southwest  Level FlightAware Approximate
04:57PM 35.7239 -80.5089 215° Southwest 243 280 6,000  Level Atlanta Center
04:58PM 35.6209 -80.5297 228° Southwest  Level FlightAware Approximate
04:58PM 35.6881 -80.5742 236° Southwest 238 274 6,100  Level Atlanta Center
04:59PM 35.6489 -80.6653 242° Southwest 236 272 6,000 -60 Descending Atlanta Center
05:00PM 35.6253 -80.7200 242° Southwest 234 269 6,000  Level Atlanta Center
05:01PM 35.5814 -80.7881 232° Southwest 242 278 6,000 -480 Level Atlanta Center
05:03PM 35.5244 -80.8517 222° Southwest 248 285 5,000 -540 Descending Atlanta Center
05:03PM 35.4839 -80.8967 222° Southwest 238 274 5,000 -120 Level Atlanta Center
05:04PM 35.4350 -80.9367 214° Southwest 217 250 4,800 -660 Descending Atlanta Center
05:05PM 35.3753 -80.9669 202° Southwest 179 206 3,700 -1,020 Descending Atlanta Center
05:06PM 35.3314 -80.9636 176° South 171 197 2,800 -960 Descending Atlanta Center
05:07PM 35.2875 -80.9625 179° South 153 176 1,900 -780 Descending Atlanta Center
05:08PM 35.2497 -80.9564 172° South 132 152 1,300 -600 Descending Atlanta Center
05:10PM 35.2137 -80.9491 209° Southwest  Level Estimated
05:17PM 35.2137 -80.9491 209° Southwest  Level Estimated